createdAt,value
2022-12-17T00:00:42.840Z,32.47
2022-12-17T00:03:29.376Z,29.80
2022-12-17T00:06:14.843Z,28.40
2022-12-17T00:09:00.309Z,29.23
2022-12-17T00:11:45.895Z,25.43
2022-12-17T00:14:31.435Z,28.30
2022-12-17T00:17:18.319Z,26.00
2022-12-17T00:20:03.932Z,26.60
2022-12-17T00:22:49.554Z,24.87
2022-12-17T00:25:35.052Z,24.67
2022-12-17T00:28:20.440Z,23.20
2022-12-17T00:31:10.317Z,23.43
2022-12-17T00:34:02.419Z,24.07
2022-12-17T00:36:47.714Z,28.80
2022-12-17T00:39:33.256Z,27.13
2022-12-17T00:42:18.643Z,26.57
2022-12-17T00:45:04.229Z,29.03
2022-12-17T00:47:49.669Z,22.47
2022-12-17T00:50:36.323Z,25.37
2022-12-17T00:53:21.752Z,15.93
2022-12-17T00:56:07.217Z,19.90
2022-12-17T00:58:52.788Z,18.43
2022-12-17T01:01:38.247Z,20.73
2022-12-17T01:04:23.595Z,17.17
2022-12-17T01:07:10.508Z,17.40
2022-12-17T01:09:55.920Z,18.57
2022-12-17T01:12:41.535Z,18.73
2022-12-17T01:15:27.307Z,18.33
2022-12-17T01:18:12.821Z,23.77
2022-12-17T01:21:09.759Z,19.93
2022-12-17T01:23:56.907Z,19.03
2022-12-17T01:26:42.515Z,20.57
2022-12-17T01:29:27.882Z,19.50
2022-12-17T01:32:21.778Z,16.20
2022-12-17T01:35:07.220Z,18.33
2022-12-17T01:37:52.676Z,19.90
2022-12-17T01:40:39.516Z,15.57
2022-12-17T01:43:29.489Z,21.17
2022-12-17T01:46:20.451Z,16.30
2022-12-17T01:49:06.538Z,17.73
2022-12-17T01:51:53.929Z,13.83
2022-12-17T01:54:39.407Z,18.07
2022-12-17T01:57:27.872Z,17.17
2022-12-17T02:00:18.539Z,17.70
2022-12-17T02:03:04.069Z,16.03
2022-12-17T02:05:56.211Z,14.33
2022-12-17T02:08:49.121Z,14.83
2022-12-17T02:11:48.546Z,17.07
2022-12-17T02:14:44.282Z,16.73
2022-12-17T02:17:36.776Z,17.17
2022-12-17T02:20:32.668Z,21.63
2022-12-17T02:23:29.286Z,16.33
2022-12-17T02:26:19.776Z,22.73
2022-12-17T02:29:09.619Z,15.33
2022-12-17T02:32:00.786Z,20.83
2022-12-17T02:34:46.042Z,20.50
2022-12-17T02:37:31.507Z,23.47
2022-12-17T02:40:17.323Z,24.73
2022-12-17T02:43:05.952Z,24.30
2022-12-17T02:45:53.039Z,24.10
2022-12-17T02:48:38.794Z,22.60
2022-12-17T02:51:24.847Z,19.37
2022-12-17T02:54:24.106Z,26.20
2022-12-17T02:57:09.516Z,20.10
2022-12-17T02:59:54.938Z,21.67
2022-12-17T03:02:43.450Z,22.83
2022-12-17T03:05:44.599Z,23.03
2022-12-17T03:08:30.104Z,21.43
2022-12-17T03:11:15.659Z,21.73
2022-12-17T03:14:01.116Z,23.63
2022-12-17T03:16:46.447Z,23.43
2022-12-17T03:19:33.217Z,25.73
2022-12-17T03:22:30.065Z,24.00
2022-12-17T03:25:15.430Z,21.90
2022-12-17T03:28:00.810Z,26.43
2022-12-17T03:30:49.126Z,23.50
2022-12-17T03:33:34.831Z,23.07
2022-12-17T03:36:22.169Z,23.27
2022-12-17T03:39:07.823Z,21.67
2022-12-17T03:41:53.384Z,23.27
2022-12-17T03:44:38.709Z,19.80
2022-12-17T03:47:29.541Z,15.83
2022-12-17T03:50:15.015Z,16.80
2022-12-17T03:53:13.320Z,15.20
2022-12-17T03:55:58.916Z,17.47
2022-12-17T03:58:44.354Z,18.00
2022-12-17T04:01:29.953Z,20.23
2022-12-17T04:04:15.268Z,15.80
2022-12-17T04:07:00.668Z,14.50
2022-12-17T04:09:47.590Z,15.20
2022-12-17T04:12:33.076Z,11.67
2022-12-17T04:15:18.650Z,13.67
2022-12-17T04:18:04.307Z,13.13
2022-12-17T04:20:58.197Z,17.70
2022-12-17T04:23:43.656Z,11.90
2022-12-17T04:26:30.513Z,13.37
2022-12-17T04:29:30.515Z,14.90
2022-12-17T04:32:15.896Z,13.37
2022-12-17T04:35:09.626Z,14.63
2022-12-17T04:37:55.196Z,15.47
2022-12-17T04:40:40.671Z,21.33
2022-12-17T04:43:29.457Z,13.60
2022-12-17T04:46:15.226Z,12.30
2022-12-17T04:49:00.364Z,13.33
2022-12-17T04:51:45.945Z,9.70
2022-12-17T04:54:31.508Z,14.57
2022-12-17T04:57:16.872Z,12.50
2022-12-17T05:00:03.749Z,9.43
2022-12-17T05:02:49.394Z,10.50
2022-12-17T05:05:35.180Z,12.40
2022-12-17T05:08:20.774Z,11.60
2022-12-17T05:11:06.167Z,9.00
2022-12-17T05:13:51.943Z,13.13
2022-12-17T05:16:38.687Z,13.80
2022-12-17T05:19:24.228Z,14.30
2022-12-17T05:22:12.055Z,12.13
2022-12-17T05:24:57.541Z,12.30
2022-12-17T05:27:43.044Z,16.60
2022-12-17T05:30:29.662Z,14.40
2022-12-17T05:33:20.145Z,17.83
2022-12-17T05:36:05.695Z,19.60
2022-12-17T05:38:51.148Z,18.30
2022-12-17T05:41:36.682Z,18.60
2022-12-17T05:44:22.400Z,20.07
2022-12-17T05:47:07.795Z,21.93
2022-12-17T05:49:54.544Z,20.50
2022-12-17T05:52:42.181Z,20.27
2022-12-17T05:55:28.266Z,17.87
2022-12-17T05:58:21.052Z,23.63
2022-12-17T06:01:06.447Z,25.70
2022-12-17T06:03:51.239Z,22.17
2022-12-17T06:06:38.329Z,23.93
2022-12-17T06:09:38.277Z,24.90
2022-12-17T06:12:24.424Z,26.50
2022-12-17T06:15:09.722Z,25.50
2022-12-17T06:17:55.199Z,21.60
2022-12-17T06:20:40.868Z,21.23
2022-12-17T06:23:28.974Z,26.13
2022-12-17T06:26:15.864Z,19.27
2022-12-17T06:29:02.015Z,20.60
2022-12-17T06:31:47.540Z,23.43
2022-12-17T06:34:32.725Z,20.93
2022-12-17T06:37:18.141Z,21.80
2022-12-17T06:40:04.980Z,24.10
2022-12-17T06:42:50.499Z,25.50
2022-12-17T06:45:35.887Z,25.10
2022-12-17T06:48:22.531Z,24.77
2022-12-17T06:51:16.434Z,26.50
2022-12-17T06:54:10.504Z,23.40
2022-12-17T06:56:57.424Z,25.57
2022-12-17T06:59:42.740Z,20.73
2022-12-17T07:02:29.482Z,22.23
2022-12-17T07:05:14.920Z,19.90
2022-12-17T07:08:00.339Z,21.13
2022-12-17T07:10:45.743Z,19.83
2022-12-17T07:13:32.786Z,18.37
2022-12-17T07:16:18.061Z,21.23
2022-12-17T07:19:03.514Z,25.13
2022-12-17T07:21:48.925Z,26.13
2022-12-17T07:24:34.243Z,19.90
2022-12-17T07:27:19.519Z,18.77
2022-12-17T07:30:06.221Z,19.37
2022-12-17T07:32:51.754Z,20.57
2022-12-17T07:35:37.764Z,19.57
2022-12-17T07:38:23.844Z,25.70
2022-12-17T07:41:09.020Z,20.93
2022-12-17T07:43:54.473Z,18.00
2022-12-17T07:46:41.409Z,17.43
2022-12-17T07:49:26.711Z,21.10
2022-12-17T07:52:12.187Z,15.40
2022-12-17T07:54:57.756Z,24.23
2022-12-17T07:57:44.514Z,22.80
2022-12-17T08:00:31.255Z,26.30
2022-12-17T08:03:19.083Z,24.33
2022-12-17T08:06:04.856Z,23.30
2022-12-17T08:08:58.673Z,27.43
2022-12-17T08:11:44.088Z,31.57
2022-12-17T08:14:29.591Z,28.40
2022-12-17T08:17:15.086Z,26.63
2022-12-17T08:20:01.996Z,27.77
2022-12-17T08:22:47.312Z,28.87
2022-12-17T08:25:47.223Z,22.53
2022-12-17T08:31:38.929Z,24.50
2022-12-17T08:34:24.683Z,26.27
2022-12-17T08:37:22.870Z,30.17
2022-12-17T08:40:04.632Z,28.40
2022-12-17T08:42:50.145Z,25.90
2022-12-17T08:45:35.598Z,28.57
2022-12-17T08:48:22.210Z,25.60
2022-12-17T08:51:07.669Z,24.23
2022-12-17T08:54:02.775Z,21.67
2022-12-17T08:56:48.226Z,24.30
2022-12-17T08:59:33.746Z,23.00
2022-12-17T09:02:19.330Z,26.20
2022-12-17T09:05:04.645Z,30.00
2022-12-17T09:07:50.016Z,35.73
2022-12-17T09:10:36.838Z,34.63
2022-12-17T09:13:22.292Z,28.40
2022-12-17T09:16:12.853Z,33.57
2022-12-17T09:18:58.701Z,26.80
2022-12-17T09:21:46.077Z,32.90
2022-12-17T09:24:31.577Z,27.13
2022-12-17T09:27:18.323Z,30.20
2022-12-17T09:30:03.726Z,25.07
2022-12-17T09:32:49.642Z,31.73
2022-12-17T09:35:35.144Z,30.00
2022-12-17T09:38:20.594Z,27.07
2022-12-17T09:41:09.390Z,31.40
2022-12-17T09:44:03.729Z,34.13
2022-12-17T09:46:55.556Z,33.73
2022-12-17T09:49:42.964Z,29.40
2022-12-17T09:52:39.964Z,33.93
2022-12-17T09:55:35.368Z,33.63
2022-12-17T09:58:21.720Z,34.10
2022-12-17T10:01:14.925Z,29.63
2022-12-17T10:04:04.485Z,41.37
2022-12-17T10:06:51.028Z,31.03
2022-12-17T10:09:37.984Z,38.27
2022-12-17T10:12:32.116Z,38.77
2022-12-17T10:15:16.618Z,32.90
2022-12-17T10:18:03.334Z,36.43
2022-12-17T10:20:52.191Z,34.13
2022-12-17T10:23:44.904Z,33.20
2022-12-17T10:26:35.235Z,33.30
2022-12-17T10:29:24.710Z,29.90
2022-12-17T10:32:10.152Z,25.80
2022-12-17T10:35:04.807Z,29.77
2022-12-17T10:37:53.746Z,27.10
2022-12-17T10:40:44.657Z,27.07
2022-12-17T10:43:47.770Z,32.40
2022-12-17T10:46:43.799Z,28.03
2022-12-17T10:49:31.427Z,32.17
2022-12-17T10:52:24.195Z,28.30
2022-12-17T10:55:19.220Z,24.30
2022-12-17T10:58:07.488Z,29.43
2022-12-17T11:01:00.977Z,31.33
2022-12-17T11:03:56.643Z,25.60
2022-12-17T11:06:45.850Z,27.77
2022-12-17T11:09:42.315Z,23.33
2022-12-17T11:12:30.501Z,26.77
2022-12-17T11:15:21.324Z,26.93
2022-12-17T11:18:11.626Z,27.23
2022-12-17T11:21:06.182Z,30.40
2022-12-17T11:23:55.108Z,26.90
2022-12-17T11:26:45.310Z,30.90
2022-12-17T11:29:32.420Z,33.77
2022-12-17T11:32:49.809Z,30.17
2022-12-17T11:35:42.138Z,33.17
2022-12-17T11:38:40.397Z,34.07
2022-12-17T11:41:34.338Z,33.57
2022-12-17T11:44:30.062Z,30.13
2022-12-17T11:47:21.973Z,35.37
2022-12-17T11:50:15.954Z,28.03
2022-12-17T11:53:07.770Z,31.70
2022-12-17T11:56:00.237Z,35.80
2022-12-17T11:58:52.712Z,27.40
2022-12-17T12:01:50.390Z,32.20
2022-12-17T12:04:49.797Z,27.83
2022-12-17T12:07:42.691Z,28.63
2022-12-17T12:10:33.624Z,27.37
2022-12-17T12:13:29.942Z,27.77
2022-12-17T12:16:25.434Z,32.20
2022-12-17T12:19:20.788Z,32.37
2022-12-17T12:22:14.844Z,34.80
2022-12-17T12:25:19.039Z,33.13
2022-12-17T12:28:14.530Z,33.57
2022-12-17T12:31:05.658Z,31.50
2022-12-17T12:33:57.392Z,35.27
2022-12-17T12:36:45.665Z,30.43
2022-12-17T12:39:36.059Z,31.93
2022-12-17T12:42:24.858Z,32.40
2022-12-17T12:45:18.903Z,33.97
2022-12-17T12:48:12.442Z,32.73
2022-12-17T12:51:03.751Z,36.03
2022-12-17T12:53:50.485Z,33.10
2022-12-17T12:56:47.186Z,35.60
2022-12-17T12:59:44.471Z,31.90
2022-12-17T13:02:43.494Z,33.77
2022-12-17T13:05:33.912Z,31.10
2022-12-17T13:08:22.459Z,39.20
2022-12-17T13:10:53.479Z,39.93
2022-12-17T13:13:34.005Z,35.73
2022-12-17T13:16:05.933Z,35.17
2022-12-17T13:18:37.205Z,37.37
2022-12-17T13:21:07.238Z,29.20
2022-12-17T13:23:36.996Z,33.17
2022-12-17T13:26:23.963Z,37.67
2022-12-17T13:29:04.790Z,36.90
2022-12-17T13:31:44.865Z,34.30
2022-12-17T13:34:20.368Z,41.03
2022-12-17T13:36:55.452Z,36.33
2022-12-17T13:39:35.303Z,35.53
2022-12-17T13:42:05.247Z,35.13
2022-12-17T13:44:41.100Z,39.10
2022-12-17T13:47:21.695Z,42.50
2022-12-17T13:50:24.333Z,46.47
2022-12-17T13:52:40.695Z,41.53
2022-12-17T13:55:10.742Z,41.27
2022-12-17T13:57:45.617Z,34.77
2022-12-17T14:00:21.642Z,34.30
2022-12-17T14:02:49.853Z,38.80
2022-12-17T14:05:27.622Z,43.03
2022-12-17T14:07:58.437Z,36.67
2022-12-17T14:10:26.532Z,38.23
2022-12-17T14:13:06.002Z,39.33
2022-12-17T14:15:34.261Z,37.53
2022-12-17T14:18:03.151Z,35.30
2022-12-17T14:20:33.365Z,39.57
2022-12-17T14:23:04.389Z,38.67
2022-12-17T14:25:36.228Z,39.53
2022-12-17T14:28:07.632Z,39.80
2022-12-17T14:30:46.099Z,40.50
2022-12-17T14:33:28.702Z,37.00
2022-12-17T14:35:57.863Z,42.63
2022-12-17T14:38:37.913Z,48.20
2022-12-17T14:41:26.628Z,36.87
2022-12-17T14:44:00.895Z,37.80
2022-12-17T14:46:30.586Z,48.50
2022-12-17T14:49:03.740Z,37.67
2022-12-17T14:51:34.843Z,41.13
2022-12-17T14:54:30.648Z,42.63
2022-12-17T14:57:00.161Z,38.97
2022-12-17T14:59:33.309Z,40.93
2022-12-17T15:02:03.846Z,42.40
2022-12-17T15:04:33.037Z,39.47
2022-12-17T15:07:00.900Z,38.60
2022-12-17T15:09:28.795Z,41.47
2022-12-17T15:11:57.261Z,43.23
2022-12-17T15:14:25.090Z,44.10
2022-12-17T15:16:55.812Z,40.27
2022-12-17T15:19:23.720Z,47.67
2022-12-17T15:21:51.653Z,45.47
2022-12-17T15:24:21.508Z,50.60
2022-12-17T15:26:50.091Z,42.40
2022-12-17T15:29:17.933Z,53.27
2022-12-17T15:31:45.794Z,59.17
2022-12-17T15:34:14.981Z,54.03
2022-12-17T15:36:43.154Z,48.33
2022-12-17T15:39:12.345Z,49.90
2022-12-17T15:41:57.580Z,54.33
2022-12-17T15:44:25.499Z,48.37
2022-12-17T15:46:53.347Z,51.90
2022-12-17T15:49:22.755Z,45.97
2022-12-17T15:51:50.633Z,41.60
2022-12-17T15:54:18.479Z,44.47
2022-12-17T15:56:53.549Z,47.13
2022-12-17T15:59:21.390Z,35.00
2022-12-17T16:01:49.699Z,47.13
2022-12-17T16:04:24.468Z,49.73
2022-12-17T16:06:54.474Z,45.03
2022-12-17T16:09:24.483Z,41.63
2022-12-17T16:11:54.737Z,48.77
2022-12-17T16:14:22.677Z,43.00
2022-12-17T16:16:51.128Z,48.80
2022-12-17T16:19:19.542Z,39.77
2022-12-17T16:21:47.456Z,48.10
2022-12-17T16:24:16.626Z,48.27
2022-12-17T16:26:44.678Z,39.80
2022-12-17T16:29:12.550Z,46.90
2022-12-17T16:31:40.464Z,49.47
2022-12-17T16:34:09.818Z,45.63
2022-12-17T16:36:38.298Z,42.87
2022-12-17T16:39:06.698Z,38.23
2022-12-17T16:41:36.015Z,41.40
2022-12-17T16:44:05.649Z,39.43
2022-12-17T16:46:36.190Z,43.53
2022-12-17T16:49:07.537Z,43.53
2022-12-17T16:51:36.116Z,43.50
2022-12-17T16:54:10.666Z,37.60
2022-12-17T16:56:40.916Z,40.87
2022-12-17T16:59:09.976Z,46.40
2022-12-17T17:01:39.852Z,40.90
2022-12-17T17:04:09.842Z,40.47
2022-12-17T17:06:40.007Z,55.20
2022-12-17T17:09:08.552Z,46.77
2022-12-17T17:11:36.548Z,46.37
2022-12-17T17:14:06.577Z,45.30
2022-12-17T17:16:35.218Z,50.87
2022-12-17T17:19:03.603Z,60.47
2022-12-17T17:21:34.192Z,41.60
2022-12-17T17:24:05.018Z,45.47
2022-12-17T17:26:34.435Z,55.07
2022-12-17T17:29:02.866Z,50.53
2022-12-17T17:32:08.665Z,48.57
2022-12-17T17:34:20.802Z,48.17
2022-12-17T17:36:48.696Z,43.80
2022-12-17T17:39:16.525Z,51.03
2022-12-17T17:41:44.379Z,50.83
2022-12-17T17:44:14.088Z,49.70
2022-12-17T17:46:43.459Z,45.30
2022-12-17T17:49:12.122Z,50.80
2022-12-17T17:54:29.855Z,46.53
2022-12-17T17:56:57.773Z,49.17
2022-12-17T17:59:32.973Z,50.53
2022-12-17T18:02:04.466Z,46.00
2022-12-17T18:04:32.777Z,51.40
2022-12-17T18:09:48.488Z,54.20
2022-12-17T18:12:33.620Z,45.83
2022-12-17T18:15:18.361Z,44.37
2022-12-17T18:17:51.191Z,45.60
2022-12-17T18:20:19.458Z,49.47
2022-12-17T18:22:47.576Z,49.47
2022-12-17T18:25:15.893Z,63.13
2022-12-17T18:27:43.732Z,48.80
2022-12-17T18:30:12.149Z,48.47
2022-12-17T18:32:40.060Z,46.80
2022-12-17T18:35:10.137Z,49.00
2022-12-17T18:37:38.303Z,50.13
2022-12-17T18:40:07.758Z,51.33
2022-12-17T18:42:54.736Z,54.20
2022-12-17T18:45:22.855Z,49.27
2022-12-17T18:47:51.712Z,44.60
2022-12-17T18:50:20.926Z,53.87
2022-12-17T18:52:48.793Z,50.90
2022-12-17T18:55:17.001Z,48.20
2022-12-17T18:57:44.845Z,52.33
2022-12-17T19:00:14.768Z,52.27
2022-12-17T19:02:42.804Z,54.37
2022-12-17T19:05:10.762Z,44.10
2022-12-17T19:07:39.977Z,49.77
2022-12-17T19:10:08.705Z,46.80
2022-12-17T19:12:36.523Z,50.03
2022-12-17T19:15:04.605Z,47.30
2022-12-17T19:17:32.435Z,54.50
2022-12-17T19:20:00.240Z,50.13
2022-12-17T19:22:28.084Z,45.53
2022-12-17T19:24:57.257Z,49.07
2022-12-17T19:27:25.387Z,49.93
2022-12-17T19:29:54.882Z,54.47
2022-12-17T19:32:23.499Z,53.17
2022-12-17T19:34:51.356Z,42.70
2022-12-17T19:37:19.234Z,53.87
2022-12-17T19:39:47.207Z,43.80
2022-12-17T19:42:25.402Z,52.80
2022-12-17T19:44:54.180Z,54.30
2022-12-17T19:47:22.740Z,47.93
2022-12-17T19:49:51.156Z,49.30
2022-12-17T19:52:19.165Z,45.67
2022-12-17T19:54:46.996Z,48.67
2022-12-17T19:57:17.245Z,46.10
2022-12-17T19:59:45.102Z,54.83
2022-12-17T20:02:13.056Z,40.37
2022-12-17T20:04:41.041Z,58.17
2022-12-17T20:07:08.899Z,48.30
2022-12-17T20:09:36.834Z,44.77
2022-12-17T20:12:04.999Z,51.33
2022-12-17T20:14:34.262Z,41.30
2022-12-17T20:17:04.916Z,51.40
2022-12-17T20:19:34.646Z,45.33
2022-12-17T20:22:04.267Z,46.17
2022-12-17T20:24:32.536Z,44.53
2022-12-17T20:27:01.190Z,45.97
2022-12-17T20:29:29.409Z,42.50
2022-12-17T20:32:01.349Z,46.37
2022-12-17T20:34:29.289Z,43.77
2022-12-17T20:36:57.193Z,48.33
2022-12-17T20:39:27.807Z,42.30
2022-12-17T20:41:56.719Z,43.40
2022-12-17T20:44:24.692Z,43.37
2022-12-17T20:46:52.557Z,37.53
2022-12-17T20:49:21.853Z,39.27
2022-12-17T20:51:49.765Z,46.33
2022-12-17T20:54:17.640Z,44.40
2022-12-17T20:56:45.480Z,40.63
2022-12-17T20:59:16.454Z,45.40
2022-12-17T21:01:50.258Z,44.00
2022-12-17T21:04:22.306Z,47.70
2022-12-17T21:06:50.275Z,45.87
2022-12-17T21:09:20.158Z,41.50
2022-12-17T21:11:48.349Z,48.20
2022-12-17T21:14:18.222Z,44.37
2022-12-17T21:16:47.017Z,49.20
2022-12-17T21:19:17.517Z,37.20
2022-12-17T21:21:46.873Z,43.40
2022-12-17T21:24:14.808Z,41.33
2022-12-17T21:26:44.645Z,46.90
2022-12-17T21:29:13.256Z,38.13
2022-12-17T21:31:43.546Z,32.60
2022-12-17T21:34:13.131Z,41.60
2022-12-17T21:36:41.732Z,35.20
2022-12-17T21:39:13.408Z,37.60
2022-12-17T21:41:44.579Z,44.20
2022-12-17T21:44:14.558Z,43.73
2022-12-17T21:46:43.788Z,49.03
2022-12-17T21:49:15.819Z,47.93
2022-12-17T21:51:44.009Z,42.37
2022-12-17T21:54:18.930Z,48.83
2022-12-17T21:56:47.946Z,44.80
2022-12-17T21:59:15.817Z,45.93
2022-12-17T22:01:43.873Z,40.50
2022-12-17T22:04:11.903Z,44.73
2022-12-17T22:06:44.188Z,47.03
2022-12-17T22:09:33.646Z,39.77
2022-12-17T22:12:26.131Z,40.90
2022-12-17T22:14:54.383Z,38.00
2022-12-17T22:17:22.743Z,38.03
2022-12-17T22:19:50.631Z,40.40
2022-12-17T22:22:18.561Z,32.53
2022-12-17T22:24:47.783Z,40.30
2022-12-17T22:27:15.763Z,39.20
2022-12-17T22:30:01.269Z,45.87
2022-12-17T22:32:46.675Z,33.60
2022-12-17T22:37:07.374Z,37.87
2022-12-17T22:40:10.531Z,36.53
2022-12-17T22:44:36.418Z,39.17
2022-12-17T22:44:49.262Z,40.57
2022-12-17T22:46:28.649Z,42.90
2022-12-17T22:48:57.357Z,36.93
2022-12-17T22:51:32.415Z,41.70
2022-12-17T22:54:04.014Z,35.50
2022-12-17T22:57:11.580Z,43.30
2022-12-17T22:59:24.088Z,42.53
2022-12-17T23:01:52.189Z,42.57
2022-12-17T23:04:21.024Z,44.63
2022-12-17T23:06:49.035Z,47.90
2022-12-17T23:09:19.444Z,46.17
2022-12-17T23:11:49.725Z,44.07
2022-12-17T23:14:18.677Z,43.90
2022-12-17T23:16:46.920Z,39.93
2022-12-17T23:19:14.916Z,40.03
2022-12-17T23:21:42.776Z,35.00
2022-12-17T23:24:10.706Z,42.53
2022-12-17T23:26:39.850Z,40.40
2022-12-17T23:29:19.171Z,45.13
2022-12-17T23:31:48.206Z,43.43
2022-12-17T23:34:16.331Z,42.30
2022-12-17T23:36:44.251Z,44.73
2022-12-17T23:39:12.155Z,39.73
2022-12-17T23:41:40.059Z,37.37
2022-12-17T23:44:09.239Z,42.03
2022-12-17T23:46:37.132Z,44.80
2022-12-17T23:49:06.550Z,42.43
2022-12-17T23:51:34.450Z,46.80
2022-12-17T23:54:02.317Z,41.83
2022-12-17T23:56:30.167Z,42.03
2022-12-17T23:58:59.898Z,35.40
